Archival Weather

Dane County Rgnl/Truax Fld

Madison, Wisconsin (KMSN)

Report from: Sunday, April 21, 2024 1:53 AM CDT
Current time: Tuesday, May 21, 2024 10:56 AM CDT

Current weather – Weather history – Daily summaries
Weather forecast

Temperature0.0°C (32.0°F)
Dew point-5.0°C (23.0°F)
Winds Calm
Visibility10 mi. (16.1 km)
Clouds Sky clear
Altimeter30.16 in.Hg (1021 mB)
Relative humidity69 %
Density altitude-2,067 ft. (-630 m)
Sea-level pressure102.2 kPa (1022 mB, 30.18 in.Hg)
Remarks Fully automated report
System requires maintenance
Automated weather observing station with precipitation discriminator
Flight conditions Visual Meteorological Conditions
Raw dataKMSN 210653Z AUTO 00000KT 10SM CLR 00/M05 A3016 RMK AO2 SLP221 T00001050 $
An error has occurred. This application may no longer respond until reloaded. Reload 🗙